Terminal Aerodrome Forecast
Issued by NWS

Current Version | Previous Version | Text Only | Print | Product List | Glossary Off
Versions: 1 2 3 4 5 6 7 8 9 10 11 12 13 14 15 16 17 18 19 20 21 22 23

000
FTUS41 KRLX 162300
TAFCKB
TAF
KCKB 162329Z 1700/1724 00000KT P6SM SCT070
     FM170500 00000KT 5SM BR FEW250
     FM170700 00000KT 1SM BR SCT250
     FM170800 00000KT 1/2SM FG OVC001
     FM171300 00000KT 2SM BR SCT001
     FM171400 00000KT P6SM FEW050
     FM172000 28004KT P6SM FEW040=

USA.gov is the U.S. government's official web portal to all federal, state and local government web resources and services.